Time;durP1;ratioP1;P1;durP2;ratioP2;P2;SDS_P1;SDS_P2;PMS_P1;PMS_P2;Temp;Humidity;BMP_temperature;BMP_pressure;BME280_temperature;BME280_humidity;BME280_pressure;Samples;Min_cycle;Max_cycle;Signal;HPM_P1;HPM_P2
2021/05/11 00:01:37;;;;;;;1.88;1.08;;;16.90;65.70;;;;;;6167937;23;20049;-75
2021/05/11 00:04:03;;;;;;;2.45;1.10;;;16.90;65.70;;;;;;6167988;23;20013;-75
2021/05/11 00:06:29;;;;;;;1.98;1.00;;;16.90;65.70;;;;;;6167783;23;20036;-75
2021/05/11 00:08:55;;;;;;;2.53;1.02;;;16.90;65.70;;;;;;6157622;23;20013;-75
2021/05/11 00:11:21;;;;;;;1.88;0.82;;;16.90;65.80;;;;;;6168533;23;20021;-75
2021/05/11 00:13:47;;;;;;;3.28;0.90;;;16.90;65.80;;;;;;6132863;23;20013;-75
2021/05/11 00:16:12;;;;;;;1.95;1.08;;;16.90;65.70;;;;;;6159084;23;20094;-74
2021/05/11 00:18:39;;;;;;;2.45;0.85;;;16.90;65.70;;;;;;6168188;23;20418;-75
2021/05/11 00:21:05;;;;;;;2.33;0.85;;;16.90;65.70;;;;;;6157830;23;20291;-75
2021/05/11 00:23:31;;;;;;;1.35;1.00;;;16.90;65.70;;;;;;6158292;23;20021;-74
2021/05/11 00:25:57;;;;;;;3.17;0.90;;;16.90;65.60;;;;;;6168061;23;20300;-74
2021/05/11 00:28:24;;;;;;;2.13;0.85;;;16.90;65.60;;;;;;6157936;23;20077;-75
2021/05/11 00:30:50;;;;;;;2.80;0.93;;;16.90;65.60;;;;;;6167556;23;20040;-74
2021/05/11 00:33:17;;;;;;;1.67;0.93;;;16.90;65.60;;;;;;6167985;23;20021;-75
2021/05/11 00:35:43;;;;;;;4.00;1.10;;;16.90;65.60;;;;;;6158592;23;20017;-74
2021/05/11 00:38:08;;;;;;;4.03;1.00;;;16.90;65.60;;;;;;6167620;23;20096;-75
2021/05/11 00:40:34;;;;;;;3.30;0.70;;;16.90;65.60;;;;;;6167482;23;20013;-74
2021/05/11 00:43:00;;;;;;;2.03;0.80;;;16.90;65.60;;;;;;6163649;23;20014;-75
2021/05/11 00:45:29;;;;;;;2.00;0.80;;;16.90;65.60;;;;;;6167824;23;20503;-75
2021/05/11 00:47:55;;;;;;;2.65;0.80;;;16.90;65.60;;;;;;6157614;23;20018;-75
2021/05/11 00:50:21;;;;;;;2.47;1.00;;;16.90;65.60;;;;;;6137619;23;20076;-75
2021/05/11 00:52:48;;;;;;;2.47;1.10;;;16.90;65.60;;;;;;6167922;23;20017;-75
2021/05/11 00:55:14;;;;;;;3.03;0.98;;;16.90;65.60;;;;;;6158156;23;20092;-75
2021/05/11 00:57:40;;;;;;;3.72;1.10;;;16.90;65.60;;;;;;6167502;23;20014;-75
2021/05/11 01:00:09;;;;;;;3.42;0.90;;;16.90;65.60;;;;;;6157776;23;20013;-74
2021/05/11 01:02:35;;;;;;;2.30;0.82;;;16.90;65.60;;;;;;6168479;23;20045;-74
2021/05/11 01:05:06;;;;;;;2.28;1.00;;;16.90;65.60;;;;;;6167792;23;20020;-75
2021/05/11 01:07:32;;;;;;;1.90;0.85;;;16.80;65.50;;;;;;6168224;23;20009;-74
2021/05/11 01:09:58;;;;;;;3.90;1.17;;;16.90;65.60;;;;;;6157747;23;20026;-74
2021/05/11 01:12:25;;;;;;;3.63;1.17;;;16.90;65.60;;;;;;6157972;23;20089;-75
2021/05/11 01:14:52;;;;;;;3.53;1.13;;;16.90;65.70;;;;;;6169574;23;20067;-74
2021/05/11 01:17:37;;;;;;;2.60;1.08;;;16.80;65.60;;;;;;6159741;23;20180;-75
2021/05/11 01:20:07;;;;;;;3.67;1.02;;;16.90;65.70;;;;;;6169734;23;20013;-75
2021/05/11 01:25:18;;;;;;;2.28;1.10;;;16.90;65.70;;;;;;6169748;23;20021;-75
2021/05/11 01:46:54;;;;;;;2.70;1.17;;;16.80;65.80;;;;;;6169590;23;20064;-75
2021/05/11 01:49:06;;;;;;;2.33;1.10;;;16.80;65.80;;;;;;6154707;23;20013;-75
2021/05/11 02:22:33;;;;;;;4.25;1.10;;;16.80;65.80;;;;;;6168621;23;19916;-75
2021/05/11 02:23:46;;;;;;;3.40;1.13;;;16.70;65.90;;;;;;6164234;23;20010;-75
2021/05/11 02:26:11;;;;;;;3.20;1.02;;;16.70;65.90;;;;;;6158541;23;20285;-75
2021/05/11 02:28:37;;;;;;;2.03;1.10;;;16.70;65.90;;;;;;6159107;23;20017;-75
2021/05/11 02:31:03;;;;;;;3.58;1.02;;;16.80;65.90;;;;;;6169016;23;20041;-75
2021/05/11 02:33:32;;;;;;;3.20;1.10;;;16.70;65.90;;;;;;6169393;23;20010;-75
2021/05/11 02:35:58;;;;;;;2.72;0.95;;;16.80;65.90;;;;;;6169231;23;20162;-74
2021/05/11 02:38:24;;;;;;;2.65;1.30;;;16.80;66.00;;;;;;6168674;23;20328;-75
2021/05/11 02:40:50;;;;;;;2.75;1.10;;;16.80;66.00;;;;;;6169500;23;20024;-75
2021/05/11 02:43:19;;;;;;;3.30;1.13;;;16.80;65.90;;;;;;6168552;23;20013;-74
2021/05/11 02:45:45;;;;;;;3.08;1.30;;;16.70;65.90;;;;;;6168692;23;20013;-74
2021/05/11 02:48:10;;;;;;;2.40;1.05;;;16.70;65.80;;;;;;6168163;23;20307;-75
2021/05/11 02:50:36;;;;;;;3.13;1.25;;;16.70;65.80;;;;;;6164157;23;20402;-74
2021/05/11 02:53:04;;;;;;;3.30;1.13;;;16.70;65.90;;;;;;6168794;23;20010;-74
2021/05/11 02:55:30;;;;;;;2.33;1.10;;;16.70;65.90;;;;;;6158778;23;20028;-75
2021/05/11 02:57:57;;;;;;;3.08;1.13;;;16.70;65.90;;;;;;6168691;23;20009;-74
2021/05/11 03:00:25;;;;;;;2.35;1.15;;;16.70;66.00;;;;;;6168977;23;20265;-74
2021/05/11 03:02:51;;;;;;;2.55;1.00;;;16.70;65.90;;;;;;6168482;23;20013;-75
2021/05/11 03:05:18;;;;;;;3.08;1.30;;;16.70;65.90;;;;;;6159101;23;20025;-75
2021/05/11 03:07:44;;;;;;;2.72;1.00;;;16.70;65.90;;;;;;6168370;23;20017;-75
2021/05/11 03:10:12;;;;;;;2.95;1.10;;;16.70;66.00;;;;;;6158545;23;20013;-74
2021/05/11 03:12:38;;;;;;;2.17;1.13;;;16.70;65.90;;;;;;6158708;23;20018;-75
2021/05/11 03:15:06;;;;;;;1.70;1.02;;;16.70;65.90;;;;;;6159690;23;20079;-75
2021/05/11 03:17:35;;;;;;;2.78;1.30;;;16.70;65.90;;;;;;6154584;23;20017;-75
2021/05/11 03:20:00;;;;;;;3.13;1.17;;;16.70;65.90;;;;;;6169118;23;20005;-75
2021/05/11 03:22:29;;;;;;;2.42;1.00;;;16.70;65.90;;;;;;6158978;23;20013;-74
2021/05/11 03:24:58;;;;;;;3.25;1.08;;;16.70;65.90;;;;;;6159465;23;20033;-74
2021/05/11 03:27:25;;;;;;;3.45;1.05;;;16.70;65.90;;;;;;6158519;23;20024;-75
2021/05/11 03:29:50;;;;;;;2.35;1.02;;;16.70;66.00;;;;;;6168858;23;20013;-75
2021/05/11 03:32:16;;;;;;;3.55;1.00;;;16.70;65.90;;;;;;6168404;23;20024;-74
2021/05/11 03:34:42;;;;;;;2.80;1.23;;;16.70;65.90;;;;;;6168508;23;20020;-75
2021/05/11 03:37:08;;;;;;;3.80;1.00;;;16.60;65.90;;;;;;6142635;23;20445;-75
2021/05/11 03:39:38;;;;;;;3.25;1.00;;;16.70;65.90;;;;;;6169111;23;20013;-74
2021/05/11 03:42:13;;;;;;;2.10;0.77;;;16.70;65.90;;;;;;6168836;23;20010;-75
2021/05/11 03:44:41;;;;;;;2.97;1.02;;;16.70;65.90;;;;;;6168945;23;20072;-75
2021/05/11 03:47:07;;;;;;;3.05;0.98;;;16.70;65.90;;;;;;6168218;23;20015;-74
2021/05/11 03:49:33;;;;;;;2.38;0.93;;;16.70;65.90;;;;;;6167417;23;20017;-74
2021/05/11 03:51:59;;;;;;;2.00;0.88;;;16.70;65.90;;;;;;6157889;23;20862;-75
2021/05/11 03:54:26;;;;;;;3.60;1.25;;;16.70;65.90;;;;;;6168033;23;20347;-74
2021/05/11 03:56:54;;;;;;;2.25;0.85;;;16.70;65.90;;;;;;6158695;23;20084;-74
2021/05/11 03:59:21;;;;;;;3.47;1.02;;;16.60;65.80;;;;;;6168876;23;20391;-75
2021/05/11 04:01:47;;;;;;;2.75;1.10;;;16.70;65.80;;;;;;6167866;23;20076;-75
2021/05/11 04:04:16;;;;;;;2.63;1.00;;;16.70;65.80;;;;;;6167732;23;20025;-75
2021/05/11 04:06:45;;;;;;;2.50;1.00;;;16.60;65.80;;;;;;6168793;23;20009;-74
2021/05/11 04:17:03;;;;;;;3.30;1.15;;;16.60;65.80;;;;;;6125207;23;20091;-74
2021/05/11 04:19:34;;;;;;;3.90;1.05;;;16.60;65.80;;;;;;6158479;23;20294;-74
2021/05/11 04:21:59;;;;;;;2.67;0.80;;;16.60;65.80;;;;;;6167746;23;20469;-75
2021/05/11 04:24:28;;;;;;;2.15;1.00;;;16.60;65.80;;;;;;6167997;23;20013;-75
2021/05/11 04:26:56;;;;;;;1.75;0.70;;;16.60;65.80;;;;;;6168163;23;20099;-74
2021/05/11 04:29:21;;;;;;;2.33;0.85;;;16.60;65.80;;;;;;6142391;23;20020;-74
2021/05/11 04:31:47;;;;;;;2.55;0.85;;;16.60;65.80;;;;;;6167338;23;20009;-75
2021/05/11 04:34:13;;;;;;;3.08;1.10;;;16.60;65.70;;;;;;6167913;23;20072;-75
2021/05/11 04:36:39;;;;;;;2.17;0.70;;;16.60;65.80;;;;;;6167590;23;20013;-75
2021/05/11 04:39:05;;;;;;;1.98;0.70;;;16.60;65.80;;;;;;6168549;23;20014;-74
2021/05/11 04:41:36;;;;;;;2.35;0.63;;;16.60;65.80;;;;;;6157961;23;20009;-74
2021/05/11 04:44:04;;;;;;;3.10;0.90;;;16.60;65.90;;;;;;6167754;23;20303;-74
2021/05/11 04:46:49;;;;;;;1.92;0.70;;;16.60;65.90;;;;;;6167832;23;20084;-75
2021/05/11 04:49:15;;;;;;;2.42;0.73;;;16.60;65.80;;;;;;6157479;23;20014;-75
2021/05/11 04:51:41;;;;;;;1.40;0.70;;;16.60;65.80;;;;;;6156599;23;20097;-75
2021/05/11 04:54:07;;;;;;;4.18;0.85;;;16.60;65.80;;;;;;6167595;23;20420;-74
2021/05/11 04:56:35;;;;;;;2.22;0.98;;;16.60;65.80;;;;;;6167387;23;20430;-75
2021/05/11 04:59:02;;;;;;;2.63;0.70;;;16.60;65.80;;;;;;6142765;23;20088;-74
2021/05/11 05:01:28;;;;;;;2.53;0.60;;;16.60;65.80;;;;;;6167838;23;20044;-74
2021/05/11 05:03:56;;;;;;;1.95;0.63;;;16.60;65.80;;;;;;6168094;23;20280;-75
2021/05/11 05:06:22;;;;;;;1.58;0.60;;;16.60;65.80;;;;;;6158151;23;20280;-75
2021/05/11 05:08:48;;;;;;;1.60;0.68;;;16.60;65.80;;;;;;6167875;23;20017;-75
2021/05/11 05:11:17;;;;;;;1.38;0.50;;;16.60;65.80;;;;;;6157476;23;20017;-74
2021/05/11 05:13:43;;;;;;;2.13;0.50;;;16.60;65.80;;;;;;6167293;23;20028;-75
2021/05/11 05:16:09;;;;;;;2.10;0.77;;;16.60;65.80;;;;;;6168106;23;20029;-74
2021/05/11 05:18:35;;;;;;;3.10;0.70;;;16.60;65.80;;;;;;6157625;23;20359;-75
2021/05/11 05:21:05;;;;;;;1.42;0.70;;;16.60;65.80;;;;;;6157457;23;20045;-74
2021/05/11 05:23:38;;;;;;;2.00;0.80;;;16.60;65.80;;;;;;6141974;23;20088;-74
2021/05/11 05:26:07;;;;;;;2.10;0.57;;;16.60;65.80;;;;;;6157280;23;20423;-75
2021/05/11 05:28:37;;;;;;;2.67;1.00;;;16.60;65.80;;;;;;6158344;23;20025;-75
2021/05/11 05:31:04;;;;;;;2.00;0.60;;;16.50;65.80;;;;;;6167489;23;20014;-74
2021/05/11 05:33:33;;;;;;;2.25;0.85;;;16.60;65.80;;;;;;6167533;23;20021;-75
2021/05/11 05:36:00;;;;;;;1.45;0.60;;;16.60;65.80;;;;;;6157697;23;20110;-75
2021/05/11 05:38:28;;;;;;;1.65;0.73;;;16.60;65.80;;;;;;6158436;23;20014;-74
2021/05/11 05:41:01;;;;;;;2.83;0.60;;;16.60;65.80;;;;;;6157629;23;20025;-75
2021/05/11 05:43:27;;;;;;;1.95;0.60;;;16.60;65.80;;;;;;6168334;23;20064;-74
2021/05/11 05:45:55;;;;;;;2.55;0.55;;;16.60;65.90;;;;;;6158038;23;20024;-74
2021/05/11 05:48:21;;;;;;;2.50;0.80;;;16.60;65.80;;;;;;6167609;23;20063;-74
2021/05/11 05:50:54;;;;;;;3.42;1.00;;;16.60;65.80;;;;;;6157414;23;20250;-75
2021/05/11 05:53:32;;;;;;;2.28;0.52;;;16.60;65.80;;;;;;6167580;23;20020;-74
2021/05/11 05:55:57;;;;;;;2.20;0.95;;;16.50;65.80;;;;;;6157596;23;20013;-75
2021/05/11 05:58:24;;;;;;;2.85;0.75;;;16.60;65.80;;;;;;6167586;23;20048;-75
2021/05/11 06:00:54;;;;;;;2.33;0.70;;;16.50;65.80;;;;;;6168589;23;20299;-75
2021/05/11 06:06:09;;;;;;;2.22;0.73;;;16.50;65.80;;;;;;6159495;23;20335;-74
2021/05/11 06:08:38;;;;;;;2.13;0.60;;;16.60;65.80;;;;;;6159412;23;20017;-75
2021/05/11 06:13:41;;;;;;;3.42;0.77;;;16.60;65.80;;;;;;6159061;23;20010;-74
2021/05/11 06:18:51;;;;;;;1.27;0.52;;;16.50;65.80;;;;;;6159009;23;20415;-75
2021/05/11 06:21:18;;;;;;;2.05;0.63;;;16.50;65.70;;;;;;6159357;23;20028;-75
2021/05/11 06:23:45;;;;;;;3.00;0.80;;;16.50;65.70;;;;;;6169162;23;20013;-75
2021/05/11 06:26:13;;;;;;;1.50;0.70;;;16.50;65.80;;;;;;6159231;23;20105;-74
2021/05/11 06:28:43;;;;;;;2.35;0.90;;;16.50;65.80;;;;;;6169063;23;20013;-74
2021/05/11 06:31:09;;;;;;;2.17;0.70;;;16.50;65.80;;;;;;6159674;23;20085;-74
2021/05/11 06:33:36;;;;;;;1.67;0.82;;;16.50;65.80;;;;;;6159021;23;20024;-75
2021/05/11 06:36:02;;;;;;;2.60;0.60;;;16.60;65.90;;;;;;6168242;23;20418;-75
2021/05/11 06:38:29;;;;;;;1.98;0.90;;;16.50;65.80;;;;;;6168537;23;20009;-75
2021/05/11 06:40:56;;;;;;;1.27;0.50;;;16.50;65.80;;;;;;6169097;23;20013;-74
2021/05/11 06:43:27;;;;;;;1.70;0.55;;;16.50;65.80;;;;;;6168585;23;20276;-74
2021/05/11 06:48:35;;;;;;;1.02;0.63;;;16.50;65.80;;;;;;6159403;23;19912;-74
2021/05/11 06:53:47;;;;;;;1.67;0.60;;;16.50;65.80;;;;;;6159702;23;20035;-75
2021/05/11 06:56:14;;;;;;;2.13;0.57;;;16.60;65.70;;;;;;6168394;23;20013;-74
2021/05/11 06:58:41;;;;;;;2.35;0.50;;;16.60;65.70;;;;;;6158449;23;20047;-74
2021/05/11 07:01:06;;;;;;;3.67;0.88;;;16.60;65.70;;;;;;6169187;23;20005;-74
2021/05/11 07:03:32;;;;;;;2.67;0.77;;;16.60;66.20;;;;;;6159709;23;20064;-74
2021/05/11 07:06:00;;;;;;;2.67;0.93;;;16.60;65.60;;;;;;6142639;23;20016;-74
2021/05/11 07:10:57;;;;;;;3.15;0.60;;;16.60;65.50;;;;;;6158808;23;20014;-74
2021/05/11 07:13:23;;;;;;;1.75;0.60;;;16.60;65.60;;;;;;6168865;23;20013;-75
2021/05/11 07:15:52;;;;;;;2.65;0.80;;;16.60;65.60;;;;;;6168294;23;20024;-74
2021/05/11 07:18:21;;;;;;;1.80;0.50;;;16.60;65.60;;;;;;6169049;23;20122;-75
2021/05/11 07:20:48;;;;;;;2.40;0.75;;;16.60;65.50;;;;;;6169175;23;20040;-74
2021/05/11 07:23:20;;;;;;;1.63;0.57;;;16.60;65.60;;;;;;6159144;23;20080;-75
2021/05/11 07:31:05;;;;;;;1.60;0.52;;;16.60;65.50;;;;;;6158567;23;20092;-75
2021/05/11 07:33:54;;;;;;;1.27;0.60;;;16.60;65.50;;;;;;6169081;23;20014;-74
2021/05/11 07:36:18;;;;;;;1.90;1.00;;;16.70;65.60;;;;;;6157724;23;20060;-75
2021/05/11 07:38:45;;;;;;;1.20;0.70;;;16.70;65.60;;;;;;6142321;23;20013;-74
2021/05/11 07:41:13;;;;;;;1.27;0.63;;;16.70;65.60;;;;;;6158718;23;20013;-74
2021/05/11 07:43:41;;;;;;;0.93;0.60;;;16.70;65.70;;;;;;6158808;23;20092;-74
2021/05/11 08:18:22;;;;;;;2.10;0.77;;;16.70;66.00;;;;;;6167738;23;20017;-75
2021/05/11 08:28:40;;;;;;;1.88;0.70;;;16.80;66.30;;;;;;6157666;23;20013;-74
2021/05/11 08:31:07;;;;;;;1.35;0.73;;;16.70;66.30;;;;;;6167689;23;20355;-75
2021/05/11 08:33:33;;;;;;;2.03;0.80;;;16.80;66.40;;;;;;6167900;23;20039;-75
2021/05/11 08:36:02;;;;;;;1.42;0.50;;;16.80;66.40;;;;;;6157708;23;20018;-75
2021/05/11 08:38:28;;;;;;;1.48;0.60;;;16.80;66.50;;;;;;6168217;23;20037;-74
2021/05/11 08:40:54;;;;;;;1.20;0.60;;;16.80;66.60;;;;;;6167487;23;20016;-75
2021/05/11 08:43:37;;;;;;;1.30;0.70;;;16.80;66.60;;;;;;6158049;23;20044;-75
2021/05/11 08:46:08;;;;;;;1.63;0.80;;;16.80;66.70;;;;;;6168038;23;20010;-75
2021/05/11 08:48:35;;;;;;;1.90;0.70;;;16.80;66.70;;;;;;6167915;23;20024;-74
2021/05/11 09:50:54;;;;;;;3.30;0.60;;;16.90;67.60;;;;;;6167883;23;20014;-75
2021/05/11 10:00:15;;;;;;;2.85;0.77;;;16.90;67.70;;;;;;6168966;23;20445;-75
2021/05/11 10:48:40;;;;;;;1.58;0.70;;;17.10;67.90;;;;;;6168561;23;20295;-75
2021/05/11 10:51:16;;;;;;;0.95;0.50;;;17.10;67.90;;;;;;6163715;23;20017;-74
2021/05/11 10:53:56;;;;;;;1.85;0.82;;;17.10;67.90;;;;;;6158998;23;20029;-75
2021/05/11 10:56:45;;;;;;;1.63;0.60;;;17.10;67.90;;;;;;6158978;23;20009;-75
2021/05/11 11:01:37;;;;;;;1.35;0.60;;;17.10;67.80;;;;;;6168687;23;20052;-75
2021/05/11 11:04:12;;;;;;;0.75;0.40;;;17.10;67.80;;;;;;6168778;23;20399;-75
2021/05/11 11:06:57;;;;;;;2.72;0.63;;;17.20;67.90;;;;;;6168802;23;20140;-75
2021/05/11 11:09:26;;;;;;;1.10;0.68;;;17.10;67.80;;;;;;6169369;23;20089;-75
2021/05/11 11:11:52;;;;;;;1.65;0.50;;;17.10;67.80;;;;;;6168365;23;20047;-75
2021/05/11 11:14:18;;;;;;;1.42;0.50;;;17.10;67.70;;;;;;6168888;23;20303;-74
2021/05/11 11:16:45;;;;;;;0.47;0.30;;;17.20;67.80;;;;;;6143077;23;20013;-75
2021/05/11 11:19:13;;;;;;;1.48;0.50;;;17.20;68.40;;;;;;6159191;23;20171;-75
2021/05/11 11:24:25;;;;;;;0.85;0.45;;;17.20;67.80;;;;;;6168422;23;20050;-75
2021/05/11 11:26:53;;;;;;;1.50;0.40;;;17.20;67.80;;;;;;6169082;23;20014;-75
2021/05/11 11:29:21;;;;;;;0.95;0.50;;;17.20;67.80;;;;;;6168578;23;20201;-75
2021/05/11 11:31:48;;;;;;;1.23;0.55;;;17.20;67.80;;;;;;6168175;23;20264;-75
2021/05/11 11:34:38;;;;;;;0.63;0.40;;;17.20;67.70;;;;;;6158494;23;20021;-75
2021/05/11 11:37:15;;;;;;;1.45;0.63;;;17.20;67.80;;;;;;6158748;23;20014;-74
2021/05/11 11:39:50;;;;;;;0.57;0.50;;;17.20;67.80;;;;;;6168442;23;20015;-75
2021/05/11 11:42:24;;;;;;;0.50;0.40;;;17.20;67.80;;;;;;6168183;23;20351;-75
2021/05/11 11:44:56;;;;;;;1.30;0.55;;;17.20;67.80;;;;;;6167909;23;20041;-75
2021/05/11 11:47:23;;;;;;;1.05;0.60;;;17.30;67.80;;;;;;6167987;23;20304;-75
2021/05/11 11:49:52;;;;;;;0.80;0.40;;;17.20;67.80;;;;;;6167166;23;20028;-75
2021/05/11 11:52:37;;;;;;;0.93;0.40;;;17.20;67.70;;;;;;6168394;23;20071;-75
2021/05/11 11:55:28;;;;;;;0.50;0.40;;;17.30;67.80;;;;;;6167855;23;20351;-75
2021/05/11 11:57:54;;;;;;;1.50;0.57;;;17.20;67.80;;;;;;6167649;23;20020;-75
2021/05/11 12:00:24;;;;;;;0.93;0.40;;;17.30;67.80;;;;;;6167955;23;20052;-75
2021/05/11 12:03:04;;;;;;;1.30;0.68;;;17.30;67.80;;;;;;6168667;23;20088;-75
2021/05/11 12:05:32;;;;;;;0.68;0.40;;;17.30;67.80;;;;;;6167756;23;20041;-75
2021/05/11 12:10:47;;;;;;;0.60;0.30;;;17.30;67.80;;;;;;6167764;23;20009;-75
2021/05/11 12:13:17;;;;;;;1.30;0.60;;;17.40;67.80;;;;;;6168110;23;20009;-75
2021/05/11 12:15:43;;;;;;;0.85;0.40;;;17.40;67.70;;;;;;6167709;23;20271;-75
2021/05/11 12:20:38;;;;;;;0.70;0.30;;;17.30;67.70;;;;;;6168078;23;20017;-75
2021/05/11 12:23:18;;;;;;;0.77;0.40;;;17.30;67.70;;;;;;6167672;23;20422;-75
2021/05/11 12:26:04;;;;;;;1.20;0.47;;;17.30;67.70;;;;;;6167633;23;20485;-75
2021/05/11 12:28:36;;;;;;;0.95;0.52;;;17.30;67.70;;;;;;6167941;23;20017;-75
2021/05/11 12:31:04;;;;;;;0.65;0.43;;;17.30;67.70;;;;;;6168466;23;20017;-75
2021/05/11 12:33:48;;;;;;;0.95;0.50;;;17.30;67.70;;;;;;6167887;23;20014;-75
2021/05/11 12:36:16;;;;;;;;;;;17.30;67.60;;;;;;6158718;23;20072;-75
2021/05/11 12:38:43;;;;;;;3.25;0.50;;;17.30;67.60;;;;;;6167959;23;19940;-75
2021/05/11 12:41:32;;;;;;;1.50;0.65;;;17.40;67.70;;;;;;6167674;23;20009;-75
2021/05/11 12:44:00;;;;;;;1.63;0.65;;;17.40;67.60;;;;;;6158122;23;20363;-75
2021/05/11 12:46:29;;;;;;;0.90;0.47;;;17.30;67.60;;;;;;6167370;23;20092;-75
2021/05/11 12:49:19;;;;;;;0.80;0.32;;;17.40;67.60;;;;;;6167931;23;20009;-75
2021/05/11 12:51:51;;;;;;;1.10;0.40;;;17.40;67.70;;;;;;6158455;23;20028;-75
2021/05/11 12:54:37;;;;;;;1.02;0.60;;;17.40;67.60;;;;;;6167360;23;20100;-75
2021/05/11 12:59:55;;;;;;;0.82;0.43;;;17.40;67.60;;;;;;6168532;23;20021;-75
2021/05/11 13:02:47;;;;;;;1.13;0.50;;;17.40;67.60;;;;;;6167710;23;20016;-75
2021/05/11 13:13:56;;;;;;;0.68;0.40;;;17.40;67.60;;;;;;6160083;23;20191;-75
2021/05/11 13:27:19;;;;;;;0.80;0.40;;;17.50;67.60;;;;;;6159142;23;20103;-75
2021/05/11 13:30:05;;;;;;;0.60;0.50;;;17.40;67.50;;;;;;6170274;23;20021;-75
2021/05/11 13:35:15;;;;;;;0.85;0.47;;;17.40;67.50;;;;;;6168742;23;20497;-75
2021/05/11 13:37:41;;;;;;;0.77;0.40;;;17.40;67.50;;;;;;6169752;23;20037;-75
2021/05/11 13:40:08;;;;;;;0.98;0.50;;;17.40;67.50;;;;;;6169159;23;20054;-75
2021/05/11 13:42:34;;;;;;;0.80;0.45;;;17.40;67.50;;;;;;6170072;23;20068;-75
2021/05/11 13:45:00;;;;;;;1.95;0.40;;;17.40;67.50;;;;;;6170225;23;20014;-75
2021/05/11 13:47:26;;;;;;;0.43;0.30;;;17.40;67.50;;;;;;6159641;23;20403;-75
2021/05/11 13:49:57;;;;;;;0.75;0.47;;;17.40;67.40;;;;;;6168057;23;20020;-75
2021/05/11 13:52:23;;;;;;;0.85;0.50;;;17.40;67.40;;;;;;6169133;23;20080;-75
2021/05/11 13:54:55;;;;;;;0.28;0.28;;;17.50;67.50;;;;;;6169302;23;20059;-75
2021/05/11 14:01:31;;;;;;;0.70;0.32;;;17.50;67.50;;;;;;6170013;23;20044;-75
2021/05/11 14:02:58;;;;;;;0.68;0.50;;;17.40;67.40;;;;;;6163171;23;20300;-75
2021/05/11 14:05:24;;;;;;;0.70;0.43;;;17.50;67.50;;;;;;6120124;23;20013;-75
2021/05/11 14:07:50;;;;;;;0.60;0.40;;;17.50;67.50;;;;;;6169209;23;20024;-75
2021/05/11 14:10:18;;;;;;;0.40;0.30;;;17.50;67.50;;;;;;6168659;23;20009;-74
2021/05/11 14:12:44;;;;;;;0.40;0.35;;;17.50;67.50;;;;;;6169295;23;20020;-75
2021/05/11 14:15:11;;;;;;;0.65;0.40;;;17.50;67.50;;;;;;6169854;23;20036;-75
2021/05/11 14:17:36;;;;;;;0.50;0.30;;;17.50;67.40;;;;;;6159229;23;20029;-74
2021/05/11 14:20:04;;;;;;;1.08;0.50;;;17.50;67.40;;;;;;6169090;23;20009;-75
2021/05/11 14:22:30;;;;;;;0.77;0.30;;;17.50;67.40;;;;;;6169027;23;20096;-75
2021/05/11 14:24:57;;;;;;;0.90;0.30;;;17.50;67.40;;;;;;6168846;23;20078;-75
2021/05/11 14:27:22;;;;;;;0.70;0.40;;;17.50;67.40;;;;;;6168742;23;20417;-75
2021/05/11 14:29:48;;;;;;;0.45;0.30;;;17.50;67.40;;;;;;6169373;23;20013;-75
2021/05/11 14:32:14;;;;;;;0.47;0.30;;;17.50;67.40;;;;;;6168971;23;20013;-75
2021/05/11 14:34:40;;;;;;;0.60;0.43;;;17.50;67.40;;;;;;6168721;23;20032;-75
2021/05/11 14:37:06;;;;;;;1.05;0.40;;;17.50;67.40;;;;;;6168694;23;20013;-75
2021/05/11 14:39:32;;;;;;;0.50;0.30;;;17.50;67.30;;;;;;6169048;23;20024;-75
2021/05/11 14:41:58;;;;;;;0.50;0.32;;;17.50;67.40;;;;;;6159095;23;20077;-75
2021/05/11 14:44:26;;;;;;;0.70;0.43;;;17.50;67.30;;;;;;6168549;23;20407;-75
2021/05/11 14:46:52;;;;;;;2.22;0.30;;;17.50;67.30;;;;;;6158332;23;20071;-75
2021/05/11 14:49:19;;;;;;;0.40;0.30;;;17.50;67.30;;;;;;6168910;23;20013;-75
2021/05/11 14:51:45;;;;;;;0.88;0.40;;;17.50;67.30;;;;;;6160336;23;20364;-75
2021/05/11 14:54:10;;;;;;;0.57;0.28;;;17.50;67.30;;;;;;6158887;23;20018;-75
2021/05/11 14:56:41;;;;;;;1.25;0.45;;;17.50;67.30;;;;;;6168464;23;20037;-75
2021/05/11 14:59:12;;;;;;;0.60;0.40;;;17.50;67.30;;;;;;6168799;23;20406;-75
2021/05/11 15:01:39;;;;;;;0.60;0.45;;;17.60;67.40;;;;;;6159066;23;20010;-74
2021/05/11 15:04:05;;;;;;;0.50;0.30;;;17.50;67.30;;;;;;6169284;23;20009;-75
2021/05/11 15:06:33;;;;;;;0.88;0.40;;;17.60;67.30;;;;;;6158469;23;20025;-75
2021/05/11 15:08:59;;;;;;;0.65;0.40;;;17.60;67.40;;;;;;6168276;23;20100;-75
2021/05/11 15:11:24;;;;;;;0.45;0.30;;;17.50;67.30;;;;;;6159723;23;20092;-75
2021/05/11 15:13:52;;;;;;;1.30;0.22;;;17.60;67.40;;;;;;6168785;23;20010;-75
2021/05/11 15:16:22;;;;;;;0.73;0.50;;;17.60;67.50;;;;;;6158598;23;20088;-75
2021/05/11 15:18:49;;;;;;;0.55;0.40;;;17.60;67.50;;;;;;6169162;23;20032;-75
2021/05/11 15:21:16;;;;;;;0.65;0.30;;;17.50;67.40;;;;;;6168464;23;20045;-75
2021/05/11 15:23:42;;;;;;;0.80;0.40;;;17.60;67.40;;;;;;6168574;23;20017;-75
2021/05/11 15:26:11;;;;;;;0.70;0.30;;;17.60;67.50;;;;;;6168290;23;20081;-75
2021/05/11 15:28:37;;;;;;;0.77;0.30;;;17.60;67.40;;;;;;6168562;23;20013;-75
2021/05/11 15:31:04;;;;;;;1.25;0.30;;;17.60;67.40;;;;;;6159894;23;20083;-75
2021/05/11 15:33:30;;;;;;;0.70;0.40;;;17.60;67.30;;;;;;6168323;23;20409;-75
2021/05/11 15:35:58;;;;;;;0.63;0.40;;;17.60;67.40;;;;;;6168388;23;20088;-75
2021/05/11 15:38:25;;;;;;;0.75;0.30;;;17.60;67.30;;;;;;6169115;23;20020;-74
2021/05/11 15:40:52;;;;;;;0.50;0.30;;;17.60;67.30;;;;;;6158581;23;20025;-75
2021/05/11 15:43:18;;;;;;;0.95;0.40;;;17.60;67.30;;;;;;6168389;23;20013;-75
2021/05/11 15:45:45;;;;;;;0.85;0.38;;;17.60;67.30;;;;;;6168026;23;20296;-75
2021/05/11 15:48:12;;;;;;;0.85;0.30;;;17.60;67.30;;;;;;6168740;23;20010;-75
2021/05/11 15:50:40;;;;;;;0.80;0.20;;;17.60;67.30;;;;;;6163553;23;20014;-75
2021/05/11 15:53:11;;;;;;;0.30;0.22;;;17.60;67.20;;;;;;6168325;23;20064;-74
2021/05/11 15:55:39;;;;;;;0.70;0.40;;;17.60;67.20;;;;;;6168004;23;20072;-76
2021/05/11 15:58:07;;;;;;;0.50;0.25;;;17.60;67.20;;;;;;6168362;23;20040;-74
2021/05/11 16:00:35;;;;;;;1.00;0.55;;;17.60;67.20;;;;;;6168768;23;20047;-75
2021/05/11 16:03:03;;;;;;;0.50;0.25;;;17.60;67.20;;;;;;6132919;23;20044;-75
2021/05/11 16:05:30;;;;;;;1.00;0.52;;;17.60;67.20;;;;;;6158211;23;20021;-75
2021/05/11 16:07:56;;;;;;;0.55;0.40;;;17.60;67.10;;;;;;6169314;23;20103;-75
2021/05/11 16:10:22;;;;;;;0.43;0.30;;;17.60;67.10;;;;;;6158811;23;20024;-75
2021/05/11 16:12:48;;;;;;;0.82;0.40;;;17.60;67.10;;;;;;6168180;23;20299;-75
2021/05/11 16:15:18;;;;;;;0.98;0.60;;;17.60;67.10;;;;;;6158249;23;20017;-75
2021/05/11 16:17:44;;;;;;;0.68;0.40;;;17.60;67.10;;;;;;6167899;23;20018;-74
2021/05/11 16:20:12;;;;;;;1.27;0.52;;;17.50;67.10;;;;;;6167977;23;20024;-75
2021/05/11 16:22:39;;;;;;;1.08;0.30;;;17.60;67.10;;;;;;6157785;23;20430;-75
2021/05/11 16:25:07;;;;;;;1.10;0.32;;;17.60;67.10;;;;;;6158048;23;20033;-75
2021/05/11 16:27:33;;;;;;;0.45;0.38;;;17.60;67.10;;;;;;6157911;23;20083;-75
2021/05/11 16:29:59;;;;;;;0.88;0.40;;;17.60;67.10;;;;;;6168369;23;20052;-75
2021/05/11 16:32:25;;;;;;;0.98;0.40;;;17.60;67.10;;;;;;6167582;23;20072;-75
2021/05/11 16:34:51;;;;;;;0.22;0.20;;;17.60;67.00;;;;;;6168213;23;20020;-75
2021/05/11 16:37:16;;;;;;;0.65;0.40;;;17.60;67.00;;;;;;6167830;23;20013;-75
2021/05/11 16:39:43;;;;;;;0.70;0.30;;;17.60;67.00;;;;;;6132387;23;20331;-75
2021/05/11 16:42:09;;;;;;;1.15;0.50;;;17.60;67.00;;;;;;6142718;23;20032;-75
2021/05/11 16:44:35;;;;;;;0.65;0.40;;;17.60;67.00;;;;;;6168049;23;20041;-75
2021/05/11 16:47:02;;;;;;;0.50;0.30;;;17.60;66.90;;;;;;6142516;23;20145;-75
2021/05/11 16:49:31;;;;;;;0.65;0.40;;;17.50;66.80;;;;;;6167916;23;20013;-75
2021/05/11 16:51:58;;;;;;;0.47;0.30;;;17.50;66.80;;;;;;6158204;23;20009;-75
2021/05/11 16:54:24;;;;;;;0.43;0.30;;;17.50;66.80;;;;;;6158213;23;20029;-75
2021/05/11 16:56:50;;;;;;;1.40;0.40;;;17.50;66.80;;;;;;6168252;23;20056;-75
2021/05/11 16:59:18;;;;;;;0.88;0.50;;;17.50;66.80;;;;;;6167848;23;20065;-75
2021/05/11 17:01:44;;;;;;;1.08;0.60;;;17.50;66.80;;;;;;6167728;23;20013;-75
2021/05/11 17:04:10;;;;;;;0.57;0.20;;;17.50;66.80;;;;;;6167784;23;20013;-75
2021/05/11 17:06:36;;;;;;;1.35;0.30;;;17.50;66.70;;;;;;6167506;23;20021;-75
2021/05/11 17:09:05;;;;;;;0.82;0.40;;;17.60;66.80;;;;;;6168233;23;20438;-75
2021/05/11 17:11:32;;;;;;;0.82;0.30;;;17.50;66.70;;;;;;6167685;23;20024;-75
2021/05/11 17:13:59;;;;;;;0.60;0.30;;;17.50;66.70;;;;;;6167813;23;20021;-75
2021/05/11 17:16:27;;;;;;;0.63;0.43;;;17.60;66.70;;;;;;6167382;23;20009;-75
2021/05/11 17:18:53;;;;;;;1.05;0.30;;;17.50;66.70;;;;;;6167429;23;20458;-74
2021/05/11 17:21:19;;;;;;;0.63;0.32;;;17.50;66.70;;;;;;6167362;23;20019;-75
2021/05/11 17:23:45;;;;;;;0.88;0.40;;;17.50;66.70;;;;;;6167770;23;20407;-75
2021/05/11 17:26:10;;;;;;;0.95;0.40;;;17.60;66.70;;;;;;6142352;23;20029;-74